Time;durP1;ratioP1;P1;durP2;ratioP2;P2;SDS_P1;SDS_P2;PMS_P1;PMS_P2;Temp;Humidity;BMP_temperature;BMP_pressure;BME280_temperature;BME280_humidity;BME280_pressure;Samples;Min_cycle;Max_cycle;Signal;HPM_P1;HPM_P2
2023/04/18 00:02:09;;;;;;;;;;;;;;;;;;2189660;59;13497;-24
2023/04/18 00:04:45;;;;;;;;;;;;;;;;;;2196657;59;1470;-25
2023/04/18 00:07:16;;;;;;;;;;;;;;;;;;2194238;67;1703;-23
2023/04/18 00:09:46;;;;;;;;;;;;;;;;;;2197225;59;1612;-22
2023/04/18 00:12:17;;;;;;;;;;;;;;;;;;2197145;67;1097;-24
2023/04/18 00:14:49;;;;;;;;;;;;;;;;;;2196525;59;1420;-25
2023/04/18 00:17:20;;;;;;;;;;;;;;;;;;2193941;64;15407;-25
2023/04/18 00:19:51;;;;;;;;;;;;;;;;;;2196633;67;1938;-25
2023/04/18 00:22:21;;;;;;;;;;;;;;;;;;2197029;59;1770;-25
2023/04/18 00:24:51;;;;;;;;;;;;;;;;;;2196658;59;1171;-25
2023/04/18 00:27:22;;;;;;;;;;;;;;;;;;2196261;67;1121;-25
2023/04/18 00:29:52;;;;;;;;;;;;;;;;;;2197022;59;1819;-25
2023/04/18 00:32:22;;;;;;;;;;;;;;;;;;2193750;59;19875;-25
2023/04/18 00:34:52;;;;;;;;;;;;;;;;;;2193997;67;1377;-25
2023/04/18 00:37:22;;;;;;;;;;;;;;;;;;2196525;67;1275;-25
2023/04/18 00:39:53;;;;;;;;;;;;;;;;;;2196383;67;1940;-25
2023/04/18 00:42:27;;;;;;;;;;;;;;;;;;2195815;67;1119;-25
2023/04/18 00:44:57;;;;;;;;;;;;;;;;;;2196979;67;1185;-25
2023/04/18 00:47:28;;;;;;;;;;;;;;;;;;2197066;67;1789;-25
2023/04/18 00:49:58;;;;;;;;;;;;;;;;;;2196110;67;1886;-25
2023/04/18 00:52:28;;;;;;;;;;;;;;;;;;2196766;59;1390;-25
2023/04/18 00:54:59;;;;;;;;;;;;;;;;;;2196952;67;1525;-25
2023/04/18 00:57:29;;;;;;;;;;;;;;;;;;2196546;67;1251;-25
2023/04/18 01:00:00;;;;;;;;;;;;;;;;;;2193049;59;2344;-25
2023/04/18 01:02:32;;;;;;;;;;;;;;;;;;2194450;59;12654;-25
2023/04/18 01:05:02;;;;;;;;;;;;;;;;;;2196542;59;1304;-25
2023/04/18 01:07:34;;;;;;;;;;;;;;;;;;2196389;59;1426;-25
2023/04/18 01:10:05;;;;;;;;;;;;;;;;;;2196896;67;1291;-25
2023/04/18 01:12:36;;;;;;;;;;;;;;;;;;2196748;67;1679;-25
2023/04/18 01:15:07;;;;;;;;;;;;;;;;;;2191966;59;2299;-24
2023/04/18 01:17:37;;;;;;;;;;;;;;;;;;2195344;59;12902;-25
2023/04/18 01:20:07;;;;;;;;;;;;;;;;;;2196238;67;1997;-25
2023/04/18 01:22:37;;;;;;;;;;;;;;;;;;2196317;59;1261;-25
2023/04/18 01:25:08;;;;;;;;;;;;;;;;;;2196693;59;1330;-25
2023/04/18 01:27:38;;;;;;;;;;;;;;;;;;2196482;67;1983;-25
2023/04/18 01:30:09;;;;;;;;;;;;;;;;;;2195066;59;2270;-25
2023/04/18 01:32:39;;;;;;;;;;;;;;;;;;2195031;59;12076;-22
2023/04/18 01:35:09;;;;;;;;;;;;;;;;;;2192986;67;1327;-23
2023/04/18 01:37:40;;;;;;;;;;;;;;;;;;2196602;67;1176;-22
2023/04/18 01:40:10;;;;;;;;;;;;;;;;;;2196523;67;1988;-23
2023/04/18 01:42:40;;;;;;;;;;;;;;;;;;2196583;67;1606;-23
2023/04/18 01:45:14;;;;;;;;;;;;;;;;;;2194827;67;2346;-22
2023/04/18 01:47:45;;;;;;;;;;;;;;;;;;2195488;67;12551;-22
2023/04/18 01:50:15;;;;;;;;;;;;;;;;;;2197107;67;1148;-23
2023/04/18 01:52:45;;;;;;;;;;;;;;;;;;2197051;59;1645;-23
2023/04/18 01:55:15;;;;;;;;;;;;;;;;;;2197310;67;1263;-22
2023/04/18 01:57:46;;;;;;;;;;;;;;;;;;2196614;59;1151;-22
2023/04/18 02:00:16;;;;;;;;;;;;;;;;;;2195146;59;12032;-23
2023/04/18 02:02:49;;;;;;;;;;;;;;;;;;2197178;59;1247;-23
2023/04/18 02:05:19;;;;;;;;;;;;;;;;;;2197639;59;1371;-23
2023/04/18 02:07:49;;;;;;;;;;;;;;;;;;2193989;59;1413;-23
2023/04/18 02:10:20;;;;;;;;;;;;;;;;;;2193211;67;1761;-23
2023/04/18 02:12:50;;;;;;;;;;;;;;;;;;2196944;67;1212;-23
2023/04/18 02:15:22;;;;;;;;;;;;;;;;;;2197513;59;1186;-23
2023/04/18 02:17:53;;;;;;;;;;;;;;;;;;2195183;67;1332;-23
2023/04/18 02:20:25;;;;;;;;;;;;;;;;;;2197562;67;1939;-23
2023/04/18 02:22:55;;;;;;;;;;;;;;;;;;2193931;59;1230;-23
2023/04/18 02:25:28;;;;;;;;;;;;;;;;;;2196174;67;1108;-23
2023/04/18 02:27:58;;;;;;;;;;;;;;;;;;2196828;59;1959;-23
2023/04/18 02:30:29;;;;;;;;;;;;;;;;;;2194714;59;13576;-23
2023/04/18 02:32:59;;;;;;;;;;;;;;;;;;2196547;67;1184;-23
2023/04/18 02:35:33;;;;;;;;;;;;;;;;;;2193111;67;1734;-23
2023/04/18 02:38:03;;;;;;;;;;;;;;;;;;2196627;67;1375;-23
2023/04/18 02:40:33;;;;;;;;;;;;;;;;;;2196122;67;1979;-23
2023/04/18 02:43:03;;;;;;;;;;;;;;;;;;2196235;67;1297;-23
2023/04/18 02:45:37;;;;;;;;;;;;;;;;;;2194731;64;15661;-23
2023/04/18 02:48:07;;;;;;;;;;;;;;;;;;2196365;59;1653;-23
2023/04/18 02:50:38;;;;;;;;;;;;;;;;;;2195913;59;2578;-23
2023/04/18 02:53:08;;;;;;;;;;;;;;;;;;2192669;59;1629;-23
2023/04/18 02:55:38;;;;;;;;;;;;;;;;;;2196532;59;1959;-23
2023/04/18 02:58:08;;;;;;;;;;;;;;;;;;2196556;59;1757;-23
2023/04/18 03:00:41;;;;;;;;;;;;;;;;;;2194443;59;14068;-23
2023/04/18 03:03:12;;;;;;;;;;;;;;;;;;2197243;59;1614;-23
2023/04/18 03:05:42;;;;;;;;;;;;;;;;;;2193229;59;1364;-23
2023/04/18 03:08:12;;;;;;;;;;;;;;;;;;2197305;59;1687;-23
2023/04/18 03:10:42;;;;;;;;;;;;;;;;;;2196492;67;1601;-23
2023/04/18 03:13:13;;;;;;;;;;;;;;;;;;2196815;67;1329;-23
2023/04/18 03:15:44;;;;;;;;;;;;;;;;;;2191467;59;13571;-23
2023/04/18 03:18:15;;;;;;;;;;;;;;;;;;2198162;67;1666;-23
2023/04/18 03:20:45;;;;;;;;;;;;;;;;;;2197815;59;1936;-23
2023/04/18 03:23:15;;;;;;;;;;;;;;;;;;2191909;59;1676;-23
2023/04/18 03:25:45;;;;;;;;;;;;;;;;;;2197262;59;1812;-23
2023/04/18 03:28:16;;;;;;;;;;;;;;;;;;2196876;59;1252;-23
2023/04/18 03:30:46;;;;;;;;;;;;;;;;;;2191774;67;13286;-23
2023/04/18 03:33:16;;;;;;;;;;;;;;;;;;2193685;67;1553;-23
2023/04/18 03:35:46;;;;;;;;;;;;;;;;;;2198431;67;1681;-23
2023/04/18 03:38:16;;;;;;;;;;;;;;;;;;2197234;67;1216;-23
2023/04/18 03:40:47;;;;;;;;;;;;;;;;;;2193515;67;1940;-23
2023/04/18 03:43:18;;;;;;;;;;;;;;;;;;2197439;67;1508;-23
2023/04/18 03:45:49;;;;;;;;;;;;;;;;;;2194414;60;14444;-23
2023/04/18 03:48:22;;;;;;;;;;;;;;;;;;2196935;59;1335;-23
2023/04/18 03:50:52;;;;;;;;;;;;;;;;;;2196805;67;1666;-23
2023/04/18 03:53:22;;;;;;;;;;;;;;;;;;2196594;67;1265;-23
2023/04/18 03:55:53;;;;;;;;;;;;;;;;;;2193646;59;1447;-23
2023/04/18 03:58:23;;;;;;;;;;;;;;;;;;2197251;59;1329;-23
2023/04/18 04:00:53;;;;;;;;;;;;;;;;;;2195308;59;12562;-23
2023/04/18 04:03:23;;;;;;;;;;;;;;;;;;2197197;59;1293;-23
2023/04/18 04:05:54;;;;;;;;;;;;;;;;;;2196793;59;1453;-23
2023/04/18 04:08:24;;;;;;;;;;;;;;;;;;2196782;59;1402;-23
2023/04/18 04:10:54;;;;;;;;;;;;;;;;;;2197008;67;1271;-23
2023/04/18 04:13:25;;;;;;;;;;;;;;;;;;2197279;67;1223;-23
2023/04/18 04:15:55;;;;;;;;;;;;;;;;;;2195085;59;12887;-23
2023/04/18 04:18:29;;;;;;;;;;;;;;;;;;2193956;67;1941;-23
2023/04/18 04:21:00;;;;;;;;;;;;;;;;;;2197000;59;2034;-23
2023/04/18 04:23:30;;;;;;;;;;;;;;;;;;2196914;59;1345;-23
2023/04/18 04:26:03;;;;;;;;;;;;;;;;;;2197663;59;1937;-23
2023/04/18 04:28:34;;;;;;;;;;;;;;;;;;2197621;59;1261;-24
2023/04/18 04:31:09;;;;;;;;;;;;;;;;;;2192830;67;15684;-24
2023/04/18 04:33:39;;;;;;;;;;;;;;;;;;2197103;67;1360;-23
2023/04/18 04:36:13;;;;;;;;;;;;;;;;;;2197451;67;1199;-23
2023/04/18 04:38:44;;;;;;;;;;;;;;;;;;2197726;67;1223;-23
2023/04/18 04:41:14;;;;;;;;;;;;;;;;;;2198973;67;1938;-23
2023/04/18 04:43:45;;;;;;;;;;;;;;;;;;2192346;67;1671;-23
2023/04/18 04:46:18;;;;;;;;;;;;;;;;;;2192955;59;13000;-23
2023/04/18 04:48:48;;;;;;;;;;;;;;;;;;2201470;67;1552;-23
2023/04/18 04:51:19;;;;;;;;;;;;;;;;;;2202169;67;1796;-23
2023/04/18 04:53:49;;;;;;;;;;;;;;;;;;2202420;67;1298;-23
2023/04/18 04:56:19;;;;;;;;;;;;;;;;;;2201635;67;1267;-23
2023/04/18 04:58:49;;;;;;;;;;;;;;;;;;2200877;59;1470;-23
2023/04/18 05:01:20;;;;;;;;;;;;;;;;;;2192710;59;13804;-23
2023/04/18 05:03:51;;;;;;;;;;;;;;;;;;2197599;59;1584;-24
2023/04/18 05:06:21;;;;;;;;;;;;;;;;;;2197127;67;1334;-23
2023/04/18 05:08:51;;;;;;;;;;;;;;;;;;2193758;59;2063;-23
2023/04/18 05:11:22;;;;;;;;;;;;;;;;;;2192535;67;1403;-23
2023/04/18 05:13:52;;;;;;;;;;;;;;;;;;2194083;67;1772;-23
2023/04/18 05:16:22;;;;;;;;;;;;;;;;;;2195058;59;14963;-24
2023/04/18 05:18:52;;;;;;;;;;;;;;;;;;2197587;67;1380;-25
2023/04/18 05:21:24;;;;;;;;;;;;;;;;;;2197255;59;1989;-25
2023/04/18 05:23:55;;;;;;;;;;;;;;;;;;2194688;59;1797;-24
2023/04/18 05:26:25;;;;;;;;;;;;;;;;;;2193574;67;1087;-24
2023/04/18 05:28:55;;;;;;;;;;;;;;;;;;2197654;59;1269;-24
2023/04/18 05:31:26;;;;;;;;;;;;;;;;;;2193621;59;16165;-25
2023/04/18 05:33:56;;;;;;;;;;;;;;;;;;2194712;61;1703;-24
2023/04/18 05:36:27;;;;;;;;;;;;;;;;;;2200532;67;1982;-25
2023/04/18 05:38:57;;;;;;;;;;;;;;;;;;2200603;67;1288;-24
2023/04/18 05:41:27;;;;;;;;;;;;;;;;;;2200810;67;1936;-24
2023/04/18 05:43:58;;;;;;;;;;;;;;;;;;2200699;67;1785;-24
2023/04/18 05:46:28;;;;;;;;;;;;;;;;;;2197798;59;13947;-24
2023/04/18 05:48:58;;;;;;;;;;;;;;;;;;2196910;67;1458;-24
2023/04/18 05:51:28;;;;;;;;;;;;;;;;;;2200030;67;1340;-24
2023/04/18 05:53:58;;;;;;;;;;;;;;;;;;2201358;67;1707;-24
2023/04/18 05:56:29;;;;;;;;;;;;;;;;;;2200865;67;1406;-24
2023/04/18 05:58:59;;;;;;;;;;;;;;;;;;2201161;59;1620;-25
2023/04/18 06:01:31;;;;;;;;;;;;;;;;;;2200693;59;2041;-24
2023/04/18 06:04:01;;;;;;;;;;;;;;;;;;2199479;59;1399;-24
2023/04/18 06:06:31;;;;;;;;;;;;;;;;;;2200735;67;1756;-24
2023/04/18 06:09:02;;;;;;;;;;;;;;;;;;2199205;59;1621;-24
2023/04/18 06:11:34;;;;;;;;;;;;;;;;;;2200061;67;1811;-24
2023/04/18 06:14:04;;;;;;;;;;;;;;;;;;2196357;67;1773;-24
2023/04/18 06:16:35;;;;;;;;;;;;;;;;;;2200805;59;12107;-24
2023/04/18 06:19:05;;;;;;;;;;;;;;;;;;2200075;59;2221;-24
2023/04/18 06:21:35;;;;;;;;;;;;;;;;;;2203679;59;1257;-24
2023/04/18 06:24:06;;;;;;;;;;;;;;;;;;2200089;59;2149;-24
2023/04/18 06:26:36;;;;;;;;;;;;;;;;;;2202297;59;2149;-22
2023/04/18 06:29:06;;;;;;;;;;;;;;;;;;2203206;59;2010;-22
2023/04/18 06:31:37;;;;;;;;;;;;;;;;;;2200965;64;11858;-23
2023/04/18 06:34:07;;;;;;;;;;;;;;;;;;2203755;59;2291;-22
2023/04/18 06:36:37;;;;;;;;;;;;;;;;;;2204105;67;1212;-22
2023/04/18 06:39:07;;;;;;;;;;;;;;;;;;2203607;59;2294;-22
2023/04/18 06:41:37;;;;;;;;;;;;;;;;;;2203472;67;1630;-22
2023/04/18 06:44:08;;;;;;;;;;;;;;;;;;2202298;59;2331;-23
2023/04/18 06:46:38;;;;;;;;;;;;;;;;;;2201183;67;12535;-22
2023/04/18 06:49:08;;;;;;;;;;;;;;;;;;2201807;59;2120;-22
2023/04/18 06:51:38;;;;;;;;;;;;;;;;;;2202172;59;2334;-22
2023/04/18 06:54:09;;;;;;;;;;;;;;;;;;2202909;59;2006;-22
2023/04/18 06:56:39;;;;;;;;;;;;;;;;;;2201530;59;2203;-22
2023/04/18 06:59:09;;;;;;;;;;;;;;;;;;2204138;59;1929;-22
2023/04/18 07:01:43;;;;;;;;;;;;;;;;;;2201040;59;18783;-23
2023/04/18 07:04:13;;;;;;;;;;;;;;;;;;2204356;59;1461;-22
2023/04/18 07:06:43;;;;;;;;;;;;;;;;;;2204090;59;2214;-22
2023/04/18 07:09:13;;;;;;;;;;;;;;;;;;2202680;59;1409;-23
2023/04/18 07:11:44;;;;;;;;;;;;;;;;;;2204005;59;2386;-23
2023/04/18 07:14:14;;;;;;;;;;;;;;;;;;2204351;67;1325;-23
2023/04/18 07:16:45;;;;;;;;;;;;;;;;;;2201289;59;12383;-23
2023/04/18 07:19:16;;;;;;;;;;;;;;;;;;2203419;59;2377;-23
2023/04/18 07:21:46;;;;;;;;;;;;;;;;;;2203680;59;1219;-23
2023/04/18 07:24:16;;;;;;;;;;;;;;;;;;2203211;59;2101;-23
2023/04/18 07:26:46;;;;;;;;;;;;;;;;;;2205023;59;3131;-23
2023/04/18 07:29:20;;;;;;;;;;;;;;;;;;2203060;59;2305;-23
2023/04/18 07:31:50;;;;;;;;;;;;;;;;;;2201443;59;12050;-23
2023/04/18 07:34:21;;;;;;;;;;;;;;;;;;2202893;59;2240;-23
2023/04/18 07:36:58;;;;;;;;;;;;;;;;;;2202523;59;3050;-23
2023/04/18 07:39:34;;;;;;;;;;;;;;;;;;2202477;59;2557;-23
2023/04/18 07:42:05;;;;;;;;;;;;;;;;;;2202507;59;1794;-23
2023/04/18 07:44:35;;;;;;;;;;;;;;;;;;2203824;67;2512;-24
2023/04/18 07:47:08;;;;;;;;;;;;;;;;;;2199149;59;12702;-24
2023/04/18 07:49:41;;;;;;;;;;;;;;;;;;2203552;59;1225;-22
2023/04/18 07:52:11;;;;;;;;;;;;;;;;;;2204198;59;2241;-24
2023/04/18 07:54:42;;;;;;;;;;;;;;;;;;2203597;59;1788;-24
2023/04/18 07:57:12;;;;;;;;;;;;;;;;;;2203367;67;2452;-24
2023/04/18 07:59:45;;;;;;;;;;;;;;;;;;2204041;59;1995;-24
2023/04/18 08:02:15;;;;;;;;;;;;;;;;;;2204124;59;2090;-24
2023/04/18 08:04:45;;;;;;;;;;;;;;;;;;2204668;59;1673;-24
2023/04/18 08:07:16;;;;;;;;;;;;;;;;;;2203282;59;2736;-24
2023/04/18 08:09:47;;;;;;;;;;;;;;;;;;2203599;59;1565;-22
2023/04/18 08:12:17;;;;;;;;;;;;;;;;;;2202910;59;2085;-23
2023/04/18 08:14:47;;;;;;;;;;;;;;;;;;2202782;59;1352;-24
2023/04/18 08:17:17;;;;;;;;;;;;;;;;;;2200189;59;13038;-24
2023/04/18 08:19:48;;;;;;;;;;;;;;;;;;2204322;59;1934;-22
2023/04/18 08:22:18;;;;;;;;;;;;;;;;;;2203899;59;2499;-22
2023/04/18 08:24:48;;;;;;;;;;;;;;;;;;2202966;59;2403;-22
2023/04/18 08:27:18;;;;;;;;;;;;;;;;;;2203245;59;2226;-22
2023/04/18 08:29:48;;;;;;;;;;;;;;;;;;2203858;59;1657;-22
2023/04/18 08:32:19;;;;;;;;;;;;;;;;;;2200478;59;14549;-23
2023/04/18 08:34:49;;;;;;;;;;;;;;;;;;2202336;59;1818;-22
2023/04/18 08:37:19;;;;;;;;;;;;;;;;;;2203077;59;2253;-22
2023/04/18 08:39:49;;;;;;;;;;;;;;;;;;2201925;59;3428;-24
2023/04/18 08:42:21;;;;;;;;;;;;;;;;;;2203874;59;2026;-23
2023/04/18 08:44:52;;;;;;;;;;;;;;;;;;2204662;67;2348;-24
2023/04/18 08:47:23;;;;;;;;;;;;;;;;;;2201217;59;48690;-25
2023/04/18 08:49:53;;;;;;;;;;;;;;;;;;2205711;67;1820;-23
2023/04/18 08:52:25;;;;;;;;;;;;;;;;;;2203430;59;2234;-23
2023/04/18 08:54:56;;;;;;;;;;;;;;;;;;2204413;67;1304;-23
2023/04/18 08:57:26;;;;;;;;;;;;;;;;;;2204342;59;2243;-23
2023/04/18 09:00:00;;;;;;;;;;;;;;;;;;2203216;59;1993;-24
2023/04/18 09:02:37;;;;;;;;;;;;;;;;;;2199978;59;14472;-23
2023/04/18 09:05:09;;;;;;;;;;;;;;;;;;2204103;59;1380;-23
2023/04/18 09:07:40;;;;;;;;;;;;;;;;;;2199674;59;2096;-22
2023/04/18 09:10:11;;;;;;;;;;;;;;;;;;2203139;59;2227;-23
2023/04/18 09:12:45;;;;;;;;;;;;;;;;;;2203987;59;2127;-22
2023/04/18 09:15:16;;;;;;;;;;;;;;;;;;2201031;59;2227;-23
2023/04/18 09:17:52;;;;;;;;;;;;;;;;;;2201628;59;12315;-22
2023/04/18 09:20:39;;;;;;;;;;;;;;;;;;2199344;59;2269;-23
2023/04/18 09:23:13;;;;;;;;;;;;;;;;;;2204219;59;1415;-23
2023/04/18 09:25:47;;;;;;;;;;;;;;;;;;2202033;59;1809;-23
2023/04/18 09:28:22;;;;;;;;;;;;;;;;;;2203184;59;1657;-23
2023/04/18 09:30:53;;;;;;;;;;;;;;;;;;2200927;67;14953;-23
2023/04/18 09:33:32;;;;;;;;;;;;;;;;;;2203237;59;2164;-23
2023/04/18 09:36:19;;;;;;;;;;;;;;;;;;2204822;59;1223;-23
2023/04/18 09:38:50;;;;;;;;;;;;;;;;;;2204091;67;2185;-23
2023/04/18 09:41:22;;;;;;;;;;;;;;;;;;2202493;67;2461;-23
2023/04/18 09:44:06;;;;;;;;;;;;;;;;;;2205638;59;2642;-23
2023/04/18 09:46:40;;;;;;;;;;;;;;;;;;2201704;67;16523;-23
2023/04/18 09:49:10;;;;;;;;;;;;;;;;;;2205286;67;1730;-23
2023/04/18 09:51:40;;;;;;;;;;;;;;;;;;2203923;59;2486;-23
2023/04/18 09:54:14;;;;;;;;;;;;;;;;;;2204299;67;1513;-23
2023/04/18 09:56:45;;;;;;;;;;;;;;;;;;2203878;67;1175;-23
2023/04/18 09:59:20;;;;;;;;;;;;;;;;;;2204114;59;1945;-23
2023/04/18 10:01:50;;;;;;;;;;;;;;;;;;2200260;59;12777;-23
2023/04/18 10:04:21;;;;;;;;;;;;;;;;;;2204790;59;1381;-23
2023/04/18 10:06:52;;;;;;;;;;;;;;;;;;2204220;67;1085;-23
2023/04/18 10:09:23;;;;;;;;;;;;;;;;;;2203423;67;1664;-23
2023/04/18 10:11:53;;;;;;;;;;;;;;;;;;2203249;67;1014;-23
2023/04/18 10:14:24;;;;;;;;;;;;;;;;;;2204208;67;1164;-23
2023/04/18 10:16:55;;;;;;;;;;;;;;;;;;2201932;59;23143;-23
2023/04/18 10:19:28;;;;;;;;;;;;;;;;;;2204248;59;1925;-23
2023/04/18 10:22:00;;;;;;;;;;;;;;;;;;2203427;59;1270;-23
2023/04/18 10:24:48;;;;;;;;;;;;;;;;;;2203943;59;1791;-23
2023/04/18 10:27:38;;;;;;;;;;;;;;;;;;2202328;67;1677;-23
2023/04/18 10:30:09;;;;;;;;;;;;;;;;;;2202530;67;2325;-23
2023/04/18 10:32:39;;;;;;;;;;;;;;;;;;2201496;60;12921;-23
2023/04/18 10:35:09;;;;;;;;;;;;;;;;;;2203224;67;1242;-23
2023/04/18 10:37:49;;;;;;;;;;;;;;;;;;2203047;59;1006;-23
2023/04/18 10:40:33;;;;;;;;;;;;;;;;;;2202791;59;2267;-23
2023/04/18 10:43:05;;;;;;;;;;;;;;;;;;2202859;67;2603;-23
2023/04/18 10:45:35;;;;;;;;;;;;;;;;;;2202386;67;12689;-23
2023/04/18 10:48:23;;;;;;;;;;;;;;;;;;2204317;60;1581;-23
2023/04/18 10:51:11;;;;;;;;;;;;;;;;;;2204658;67;1324;-23
2023/04/18 10:53:45;;;;;;;;;;;;;;;;;;2203609;59;2234;-22
2023/04/18 10:56:15;;;;;;;;;;;;;;;;;;2202366;59;2198;-23
2023/04/18 10:58:48;;;;;;;;;;;;;;;;;;2202591;59;2396;-23
2023/04/18 11:01:27;;;;;;;;;;;;;;;;;;2199499;59;12845;-23
2023/04/18 11:03:57;;;;;;;;;;;;;;;;;;2203564;59;2443;-23
2023/04/18 11:06:29;;;;;;;;;;;;;;;;;;2202756;59;2082;-23
2023/04/18 11:09:09;;;;;;;;;;;;;;;;;;2203174;59;2307;-23
2023/04/18 11:11:40;;;;;;;;;;;;;;;;;;2203523;67;1547;-23
2023/04/18 11:14:10;;;;;;;;;;;;;;;;;;2202162;59;2761;-23
2023/04/18 11:16:41;;;;;;;;;;;;;;;;;;2200263;60;12877;-23
2023/04/18 11:19:22;;;;;;;;;;;;;;;;;;2203085;59;2582;-23
2023/04/18 11:21:58;;;;;;;;;;;;;;;;;;2204537;59;1917;-23
2023/04/18 11:24:29;;;;;;;;;;;;;;;;;;2203968;59;2346;-23
2023/04/18 11:27:00;;;;;;;;;;;;;;;;;;2203525;59;2016;-23
2023/04/18 11:29:31;;;;;;;;;;;;;;;;;;2202598;59;2481;-23
2023/04/18 11:32:05;;;;;;;;;;;;;;;;;;2202612;60;12981;-23
2023/04/18 11:34:36;;;;;;;;;;;;;;;;;;2204426;59;2605;-23
2023/04/18 11:37:07;;;;;;;;;;;;;;;;;;2204694;59;2028;-23
2023/04/18 11:39:41;;;;;;;;;;;;;;;;;;2204207;59;2156;-23
2023/04/18 11:42:11;;;;;;;;;;;;;;;;;;2203218;60;3259;-23
2023/04/18 11:44:44;;;;;;;;;;;;;;;;;;2204462;67;3051;-23
2023/04/18 11:47:20;;;;;;;;;;;;;;;;;;2202202;67;16044;-23
2023/04/18 11:49:58;;;;;;;;;;;;;;;;;;2204472;67;1971;-23
2023/04/18 11:52:30;;;;;;;;;;;;;;;;;;2204344;67;2205;-23
2023/04/18 11:55:13;;;;;;;;;;;;;;;;;;2205173;67;1611;-23
2023/04/18 11:57:50;;;;;;;;;;;;;;;;;;2204845;59;1463;-23
2023/04/18 12:00:30;;;;;;;;;;;;;;;;;;2203333;67;12878;-23
2023/04/18 12:03:01;;;;;;;;;;;;;;;;;;2205379;59;1655;-23
2023/04/18 12:05:37;;;;;;;;;;;;;;;;;;2205708;59;1975;-23
2023/04/18 12:08:14;;;;;;;;;;;;;;;;;;2205829;59;2522;-23
2023/04/18 12:10:49;;;;;;;;;;;;;;;;;;2204046;67;2048;-23
2023/04/18 12:13:24;;;;;;;;;;;;;;;;;;2202688;59;2232;-23
2023/04/18 12:15:55;;;;;;;;;;;;;;;;;;2200849;59;2198;-23
2023/04/18 12:18:26;;;;;;;;;;;;;;;;;;2203096;59;2464;-23
2023/04/18 12:20:57;;;;;;;;;;;;;;;;;;2203808;59;2506;-23
2023/04/18 12:23:28;;;;;;;;;;;;;;;;;;2203684;59;3668;-23
2023/04/18 12:26:00;;;;;;;;;;;;;;;;;;2203829;59;2392;-23
2023/04/18 12:28:30;;;;;;;;;;;;;;;;;;2203967;59;2084;-23
2023/04/18 12:31:01;;;;;;;;;;;;;;;;;;2201039;64;13345;-23
2023/04/18 12:33:31;;;;;;;;;;;;;;;;;;2203947;67;1691;-23
2023/04/18 12:36:04;;;;;;;;;;;;;;;;;;2204428;67;2291;-23
2023/04/18 12:38:34;;;;;;;;;;;;;;;;;;2200712;67;2131;-23
2023/04/18 12:41:04;;;;;;;;;;;;;;;;;;2204097;67;2423;-23
2023/04/18 12:43:34;;;;;;;;;;;;;;;;;;2203290;67;2808;-23
2023/04/18 12:46:05;;;;;;;;;;;;;;;;;;2201569;59;12242;-23
2023/04/18 12:48:35;;;;;;;;;;;;;;;;;;2204882;67;2098;-23
2023/04/18 12:51:05;;;;;;;;;;;;;;;;;;2204029;67;2489;-23
2023/04/18 12:53:36;;;;;;;;;;;;;;;;;;2204079;59;2590;-23
2023/04/18 12:56:06;;;;;;;;;;;;;;;;;;2202563;59;2920;-23
2023/04/18 12:58:37;;;;;;;;;;;;;;;;;;2203081;59;2872;-23
2023/04/18 13:01:08;;;;;;;;;;;;;;;;;;2200382;59;18682;-23
2023/04/18 13:03:41;;;;;;;;;;;;;;;;;;2201526;59;2465;-23
2023/04/18 13:06:11;;;;;;;;;;;;;;;;;;2202218;59;2070;-23
2023/04/18 13:08:41;;;;;;;;;;;;;;;;;;2201398;59;2341;-23
2023/04/18 13:11:11;;;;;;;;;;;;;;;;;;2203711;67;1737;-23
2023/04/18 13:13:42;;;;;;;;;;;;;;;;;;2203157;59;2752;-23
2023/04/18 13:16:12;;;;;;;;;;;;;;;;;;2204120;59;2127;-23
2023/04/18 13:18:45;;;;;;;;;;;;;;;;;;2204115;59;2346;-23
2023/04/18 13:21:16;;;;;;;;;;;;;;;;;;2203684;59;2048;-23
2023/04/18 13:23:46;;;;;;;;;;;;;;;;;;2202438;59;2771;-23
2023/04/18 13:26:16;;;;;;;;;;;;;;;;;;2204611;59;2399;-23
2023/04/18 13:28:46;;;;;;;;;;;;;;;;;;2203365;59;2270;-23
2023/04/18 13:31:17;;;;;;;;;;;;;;;;;;2201188;59;13816;-23
2023/04/18 13:33:50;;;;;;;;;;;;;;;;;;2201619;59;2585;-23
2023/04/18 13:36:20;;;;;;;;;;;;;;;;;;2202889;59;2087;-23
2023/04/18 13:38:51;;;;;;;;;;;;;;;;;;2202926;59;2426;-23
2023/04/18 13:41:21;;;;;;;;;;;;;;;;;;2203517;59;2139;-22
2023/04/18 13:43:51;;;;;;;;;;;;;;;;;;2202341;59;3333;-23
2023/04/18 13:46:22;;;;;;;;;;;;;;;;;;2200616;62;15447;-23
2023/04/18 13:48:56;;;;;;;;;;;;;;;;;;2202644;59;2047;-22
2023/04/18 13:51:26;;;;;;;;;;;;;;;;;;2203660;59;2043;-22
2023/04/18 13:53:59;;;;;;;;;;;;;;;;;;2203218;59;2181;-23
2023/04/18 13:56:29;;;;;;;;;;;;;;;;;;2205058;59;2120;-22
2023/04/18 13:58:59;;;;;;;;;;;;;;;;;;2204561;59;1706;-22
2023/04/18 14:01:29;;;;;;;;;;;;;;;;;;2201067;59;16296;-22
2023/04/18 14:04:01;;;;;;;;;;;;;;;;;;2202536;59;1869;-23
2023/04/18 14:06:31;;;;;;;;;;;;;;;;;;2203977;59;2572;-22
2023/04/18 14:09:01;;;;;;;;;;;;;;;;;;2203907;67;2418;-22
2023/04/18 14:11:32;;;;;;;;;;;;;;;;;;2203882;59;2277;-22
2023/04/18 14:14:02;;;;;;;;;;;;;;;;;;2203583;67;1943;-22
2023/04/18 14:16:33;;;;;;;;;;;;;;;;;;2200334;59;13963;-23
2023/04/18 14:19:03;;;;;;;;;;;;;;;;;;2201927;59;2621;-22
2023/04/18 14:21:33;;;;;;;;;;;;;;;;;;2203023;59;2557;-22
2023/04/18 14:24:04;;;;;;;;;;;;;;;;;;2202850;59;1988;-22
2023/04/18 14:26:34;;;;;;;;;;;;;;;;;;2202618;59;2160;-24
2023/04/18 14:29:05;;;;;;;;;;;;;;;;;;2203392;59;2131;-23
2023/04/18 14:31:35;;;;;;;;;;;;;;;;;;2200908;59;13828;-22
2023/04/18 14:34:07;;;;;;;;;;;;;;;;;;2203284;59;2005;-23
2023/04/18 14:36:37;;;;;;;;;;;;;;;;;;2203147;59;2152;-23
2023/04/18 14:39:07;;;;;;;;;;;;;;;;;;2203320;67;1937;-23
2023/04/18 14:41:37;;;;;;;;;;;;;;;;;;2202990;59;2464;-25
2023/04/18 14:44:08;;;;;;;;;;;;;;;;;;2202090;60;2509;-23
2023/04/18 14:46:38;;;;;;;;;;;;;;;;;;2199814;59;12799;-23
2023/04/18 14:49:08;;;;;;;;;;;;;;;;;;2202911;59;1620;-23
2023/04/18 14:51:38;;;;;;;;;;;;;;;;;;2202847;59;2462;-22
2023/04/18 14:54:08;;;;;;;;;;;;;;;;;;2202361;60;2014;-23
2023/04/18 14:56:39;;;;;;;;;;;;;;;;;;2203446;67;2431;-23
2023/04/18 14:59:12;;;;;;;;;;;;;;;;;;2202961;59;2485;-23
2023/04/18 15:01:42;;;;;;;;;;;;;;;;;;2200549;59;46273;-23
2023/04/18 15:04:12;;;;;;;;;;;;;;;;;;2193104;59;2769;-23
2023/04/18 15:06:42;;;;;;;;;;;;;;;;;;2202235;59;2491;-22
2023/04/18 15:09:13;;;;;;;;;;;;;;;;;;2201684;59;2463;-22
2023/04/18 15:11:43;;;;;;;;;;;;;;;;;;2201153;59;2771;-23
2023/04/18 15:14:14;;;;;;;;;;;;;;;;;;2203500;59;2575;-23
2023/04/18 15:16:47;;;;;;;;;;;;;;;;;;2201401;59;16047;-23
2023/04/18 15:19:17;;;;;;;;;;;;;;;;;;2202273;59;2430;-23
2023/04/18 15:21:47;;;;;;;;;;;;;;;;;;2202647;59;2634;-23
2023/04/18 15:24:18;;;;;;;;;;;;;;;;;;2203211;59;2051;-22
2023/04/18 15:26:49;;;;;;;;;;;;;;;;;;2202792;59;2879;-23
2023/04/18 15:29:20;;;;;;;;;;;;;;;;;;2200958;59;2892;-22
2023/04/18 15:31:50;;;;;;;;;;;;;;;;;;2200193;59;12505;-22
2023/04/18 15:34:20;;;;;;;;;;;;;;;;;;2201457;59;3323;-22
2023/04/18 15:36:50;;;;;;;;;;;;;;;;;;2203665;59;1337;-23
2023/04/18 15:39:22;;;;;;;;;;;;;;;;;;2203447;59;2122;-22
2023/04/18 15:41:53;;;;;;;;;;;;;;;;;;2202626;59;1984;-22
2023/04/18 15:44:23;;;;;;;;;;;;;;;;;;2202901;59;2885;-22
2023/04/18 15:46:54;;;;;;;;;;;;;;;;;;2199488;59;13409;-23
2023/04/18 15:49:24;;;;;;;;;;;;;;;;;;2203761;59;2463;-22
2023/04/18 15:51:55;;;;;;;;;;;;;;;;;;2202988;59;2007;-23
2023/04/18 15:54:25;;;;;;;;;;;;;;;;;;2204032;59;2206;-23
2023/04/18 15:56:57;;;;;;;;;;;;;;;;;;2202973;67;1723;-23
2023/04/18 15:59:30;;;;;;;;;;;;;;;;;;2202968;59;2140;-23
2023/04/18 16:02:00;;;;;;;;;;;;;;;;;;2202597;59;14973;-23
2023/04/18 16:04:31;;;;;;;;;;;;;;;;;;2202608;59;2557;-23
2023/04/18 16:07:02;;;;;;;;;;;;;;;;;;2204896;59;1622;-23
2023/04/18 16:09:32;;;;;;;;;;;;;;;;;;2204206;59;2761;-23
2023/04/18 16:12:03;;;;;;;;;;;;;;;;;;2203032;67;2368;-23
2023/04/18 16:14:33;;;;;;;;;;;;;;;;;;2203977;59;2482;-24
2023/04/18 16:17:03;;;;;;;;;;;;;;;;;;2201761;59;12184;-23
2023/04/18 16:19:37;;;;;;;;;;;;;;;;;;2204181;59;2226;-23
2023/04/18 16:22:11;;;;;;;;;;;;;;;;;;2203338;59;2555;-25
2023/04/18 16:24:41;;;;;;;;;;;;;;;;;;2203989;59;2230;-22
2023/04/18 16:27:11;;;;;;;;;;;;;;;;;;2204276;59;2051;-22
2023/04/18 16:29:43;;;;;;;;;;;;;;;;;;2204438;59;2086;-22
2023/04/18 16:32:13;;;;;;;;;;;;;;;;;;2200471;59;15015;-22
2023/04/18 16:34:44;;;;;;;;;;;;;;;;;;2202830;59;2442;-23
2023/04/18 16:37:14;;;;;;;;;;;;;;;;;;2202433;59;1409;-23
2023/04/18 16:39:44;;;;;;;;;;;;;;;;;;2203262;59;2534;-23
2023/04/18 16:42:15;;;;;;;;;;;;;;;;;;2201963;59;2221;-23
2023/04/18 16:44:46;;;;;;;;;;;;;;;;;;2203390;59;2226;-25
2023/04/18 16:47:16;;;;;;;;;;;;;;;;;;2195861;59;12280;-23
2023/04/18 16:49:46;;;;;;;;;;;;;;;;;;2202285;59;2169;-23
2023/04/18 16:52:16;;;;;;;;;;;;;;;;;;2201403;59;2100;-23
2023/04/18 16:54:47;;;;;;;;;;;;;;;;;;2204268;59;1256;-23
2023/04/18 16:57:17;;;;;;;;;;;;;;;;;;2203863;59;2269;-22
2023/04/18 16:59:47;;;;;;;;;;;;;;;;;;2204032;59;1932;-23
2023/04/18 17:02:21;;;;;;;;;;;;;;;;;;2199186;59;13117;-25
2023/04/18 17:04:51;;;;;;;;;;;;;;;;;;2202894;59;2587;-25
2023/04/18 17:07:21;;;;;;;;;;;;;;;;;;2203221;59;2054;-25
2023/04/18 17:09:57;;;;;;;;;;;;;;;;;;2203353;59;1548;-25
2023/04/18 17:12:27;;;;;;;;;;;;;;;;;;2202699;59;2159;-25
2023/04/18 17:14:57;;;;;;;;;;;;;;;;;;2203164;59;2178;-25
2023/04/18 17:17:28;;;;;;;;;;;;;;;;;;2200070;59;12710;-25
2023/04/18 17:19:58;;;;;;;;;;;;;;;;;;2202778;59;2040;-25
2023/04/18 17:22:29;;;;;;;;;;;;;;;;;;2203909;59;1764;-25
2023/04/18 17:25:00;;;;;;;;;;;;;;;;;;2203688;59;2224;-24
2023/04/18 17:27:30;;;;;;;;;;;;;;;;;;2204070;59;1224;-24
2023/04/18 17:30:00;;;;;;;;;;;;;;;;;;2203480;59;2019;-25